»·PEaware :: N5002T KAJO-KVCV

N5002T :: KAJO-KVCV

FLIGHT INFORMATION

Flight Status: Arrived
Operator: Privately registered:
United States
More flights under this callsign
Pilot: Hunter M. (19355)
Aircraft: CESSNA 172 SKYHAWK
(C172)
More flights by this aircraft type
Origin: KAJO Corona Mun
United States
Destination: KVCV Socal Logistics
United States
More flights between these airports :: More routes between these airports
Route: PDZ V422 APLES
File this flight plan on PilotEdge
Remarks: I-11
Altitude:
(Current/Filed)
9,000ft
Speed:
(Current/Filed)
118kts
Departed: 27-Nov-18 02:21 PM
Arrived: 27-Nov-18 03:47 PM
Distance/Time
Traveled:
43nm/1:26
Distance/Time
To Go:
Arrived

Flight Plot

Page will automatically refresh every two minutes.


Map Options




Map Legend


Flown Route
Filed Route
Departure Airport
Arrival Airport
Navaid (VOR, NDB)
Fix

Horizontal Profiles

Position Reports

Time Latitude Longitude Heading Altitude Ground
Speed
27-Nov-18 14:04 33.896828 -117.599136 179 536ft 0kts
27-Nov-18 14:05 33.896828 -117.599136 179 536ft 0kts
27-Nov-18 14:06 33.896828 -117.599136 179 536ft 0kts
27-Nov-18 14:07 33.896828 -117.599136 179 536ft 0kts
27-Nov-18 14:08 33.896828 -117.599136 179 536ft 0kts
27-Nov-18 14:09 33.896828 -117.599136 179 536ft 0kts
27-Nov-18 14:10 33.896828 -117.599136 179 536ft 0kts
27-Nov-18 14:11 33.896828 -117.599136 179 536ft 0kts
27-Nov-18 14:12 33.896828 -117.599136 179 536ft 0kts
27-Nov-18 14:13 33.896828 -117.599136 179 536ft 0kts
27-Nov-18 14:14 33.896828 -117.599136 179 536ft 0kts
27-Nov-18 14:15 33.896828 -117.599136 179 536ft 0kts
27-Nov-18 14:16 33.896828 -117.599136 179 536ft 0kts
27-Nov-18 14:17 33.896828 -117.599136 179 536ft 0kts
27-Nov-18 14:18 33.896581 -117.601508 277 536ft 16kts
27-Nov-18 14:19 33.896654 -117.603751 250 536ft 0kts
27-Nov-18 14:20 33.897026 -117.603958 335 536ft 3kts
27-Nov-18 14:21 33.897107 -117.606872 267 536ft 9kts
27-Nov-18 14:22 33.897299 -117.607292 341 536ft 0kts
27-Nov-18 14:23 33.897307 -117.607296 341 536ft 1kts
27-Nov-18 14:24 33.897667 -117.588821 74 844ft 86kts
27-Nov-18 14:25 33.908932 -117.562363 66 1581ft 91kts
27-Nov-18 14:26 33.917340 -117.533656 71 2282ft 90kts
27-Nov-18 14:27 33.933167 -117.511458 40 2980ft 93kts
27-Nov-18 14:28 33.954930 -117.497644 316 3662ft 95kts
27-Nov-18 14:29 33.940409 -117.506373 179 4363ft 77kts
27-Nov-18 14:30 33.923599 -117.519551 219 5023ft 75kts
27-Nov-18 14:31 33.909827 -117.537221 312 5561ft 79kts
27-Nov-18 14:32 33.927732 -117.520835 40 6113ft 90kts
27-Nov-18 14:33 33.935356 -117.496817 166 6585ft 96kts
27-Nov-18 14:34 33.915785 -117.511339 248 7108ft 78kts
27-Nov-18 14:35 33.915518 -117.533655 310 7628ft 67kts
27-Nov-18 14:36 33.929470 -117.528006 41 8133ft 73kts
27-Nov-18 14:37 33.938023 -117.506839 124 8570ft 88kts
27-Nov-18 14:38 33.924964 -117.519380 251 8967ft 68kts
27-Nov-18 14:39 33.927355 -117.534881 30 9044ft 92kts
27-Nov-18 14:40 33.945875 -117.509002 24 9002ft 101kts
27-Nov-18 14:41 33.970446 -117.492882 19 8998ft 100kts
27-Nov-18 14:42 33.995369 -117.477907 19 8996ft 99kts
27-Nov-18 14:43 34.020214 -117.463111 18 8995ft 99kts
27-Nov-18 14:44 34.043427 -117.449121 18 8981ft 85kts
27-Nov-18 14:45 34.064209 -117.436634 15 8992ft 82kts
27-Nov-18 14:46 34.085127 -117.424856 17 8992ft 83kts
27-Nov-18 14:47 34.106082 -117.412522 17 8983ft 83kts
27-Nov-18 14:48 34.126899 -117.400225 17 8988ft 83kts
27-Nov-18 14:49 34.147674 -117.387939 17 8987ft 83kts
27-Nov-18 14:50 34.168560 -117.375580 17 8985ft 83kts
27-Nov-18 14:51 34.189418 -117.363229 17 8984ft 83kts
27-Nov-18 14:52 34.210235 -117.350897 17 8982ft 83kts
27-Nov-18 14:53 34.231149 -117.338502 17 8982ft 83kts
27-Nov-18 14:54 34.252004 -117.326134 17 8982ft 83kts
27-Nov-18 14:55 34.272844 -117.313767 17 8982ft 83kts
27-Nov-18 14:56 34.293881 -117.301280 18 8968ft 84kts
27-Nov-18 14:57 34.315058 -117.288694 18 8963ft 84kts
27-Nov-18 14:58 34.336148 -117.276170 18 8963ft 84kts
27-Nov-18 14:59 34.357280 -117.263662 18 8962ft 84kts
27-Nov-18 15:00 34.378308 -117.251003 18 8961ft 84kts
27-Nov-18 15:01 34.399405 -117.238219 18 8960ft 84kts
27-Nov-18 15:02 34.420481 -117.225563 18 8960ft 84kts
27-Nov-18 15:03 34.441628 -117.212982 18 8960ft 84kts
27-Nov-18 15:04 34.463266 -117.200342 18 8971ft 89kts
27-Nov-18 15:05 34.486310 -117.187292 18 8965ft 92kts
27-Nov-18 15:06 34.509907 -117.174152 17 8944ft 93kts
27-Nov-18 15:07 34.533445 -117.161149 17 8941ft 92kts
27-Nov-18 15:08 34.557586 -117.151472 0 8792ft 92kts
27-Nov-18 15:09 34.583825 -117.148571 0 8124ft 96kts
27-Nov-18 15:10 34.610806 -117.149207 356 7448ft 97kts
27-Nov-18 15:11 34.637202 -117.153156 345 6772ft 96kts
27-Nov-18 15:12 34.661908 -117.160906 328 6534ft 85kts
27-Nov-18 15:13 34.682274 -117.175085 327 6542ft 84kts
27-Nov-18 15:14 34.701362 -117.191243 322 6551ft 83kts
27-Nov-18 15:15 34.719704 -117.208302 318 6558ft 83kts
27-Nov-18 15:16 34.737459 -117.226661 317 6553ft 83kts
27-Nov-18 15:17 34.752728 -117.247796 310 6555ft 83kts
27-Nov-18 15:18 34.768085 -117.268930 310 6555ft 83kts
27-Nov-18 15:19 34.781862 -117.291479 294 6555ft 83kts
27-Nov-18 15:20 34.785081 -117.319600 283 6559ft 84kts
27-Nov-18 15:21 34.788104 -117.347992 272 6441ft 89kts
27-Nov-18 15:22 34.768931 -117.362777 196 5801ft 106kts
27-Nov-18 15:23 34.740045 -117.370711 196 5115ft 105kts
27-Nov-18 15:24 34.714064 -117.380226 200 4398ft 89kts
27-Nov-18 15:25 34.692530 -117.387244 181 3981ft 80kts
27-Nov-18 15:26 34.672698 -117.386606 181 3464ft 64kts
27-Nov-18 15:27 34.654612 -117.386527 181 3122ft 66kts
27-Nov-18 15:28 34.637190 -117.386842 179 3200ft 62kts
27-Nov-18 15:29 34.618138 -117.385988 178 3598ft 71kts
27-Nov-18 15:30 34.612541 -117.400810 326 4247ft 81kts
27-Nov-18 15:31 34.631263 -117.422090 312 4561ft 101kts
27-Nov-18 15:32 34.651953 -117.447013 312 4778ft 106kts
27-Nov-18 15:33 34.672915 -117.472512 311 4980ft 106kts
27-Nov-18 15:34 34.690766 -117.491841 330 5129ft 99kts
27-Nov-18 15:35 34.720294 -117.500975 345 5651ft 88kts
27-Nov-18 15:36 34.745055 -117.506700 345 5986ft 100kts
27-Nov-18 15:37 34.769094 -117.512813 345 5961ft 108kts
27-Nov-18 15:38 34.803901 -117.521043 7 5945ft 112kts
27-Nov-18 15:39 34.816024 -117.492659 67 5934ft 119kts
27-Nov-18 15:40 34.819160 -117.453823 102 5940ft 121kts
27-Nov-18 15:41 34.801651 -117.420215 146 5423ft 124kts
27-Nov-18 15:42 34.773834 -117.395460 146 4808ft 118kts
27-Nov-18 15:43 34.744735 -117.386412 181 4268ft 105kts
27-Nov-18 15:44 34.718598 -117.387671 190 4334ft 86kts
27-Nov-18 15:45 34.694848 -117.386796 180 4570ft 87kts
27-Nov-18 15:46 34.672331 -117.386937 186 4073ft 70kts
27-Nov-18 15:47 34.653603 -117.386938 187 3660ft 66kts
27-Nov-18 15:48 34.635004 -117.386644 184 3427ft 68kts
27-Nov-18 15:49 34.616463 -117.386686 181 3050ft 60kts
27-Nov-18 15:50 34.605207 -117.386603 177 2888ft 16kts
27-Nov-18 15:51 34.597564 -117.386545 182 2888ft 39kts
27-Nov-18 15:52 34.594275 -117.385427 91 2888ft 0kts
27-Nov-18 15:53 34.594254 -117.384364 117 2888ft 17kts
27-Nov-18 15:54 34.592248 -117.381596 117 2888ft 0kts
27-Nov-18 15:55 34.589276 -117.378067 133 2888ft 26kts
27-Nov-18 15:56 34.587731 -117.375290 61 2888ft 0kts
27-Nov-18 15:57 34.587731 -117.375290 61 2888ft 0kts

Navigation Log

Ident Type
Flight plan parsing failed, navigation log unavailable